كركوك, العراق

09:40 PM AST on êèنêè 30, 2016 (GMT +0300)
Erbeel | | Change Station

Elev 1378 ft 36.15 °N, 44.00 °E | Updated 40 minutes ago

Clear
صافية
90 °F
Feels Like 90 °F
N
8
ريح متغير ريح from WSW

هذا اليوم
High -- | Low -- °F
--% Chance of Precip.
Yesterday
High -- | Low -- °F
Precip. -- في
الضغط 29.65 في
وضوح الرؤية -9999.0 أميال
سحابات
نقطة الندى 36 °F
الرطوبة 15%
Rainfall 0.00 في
عمق الثلج Not available.
5:09 AM 7:07 PM
الهلال الأخير, 12% visible
METAR ORER 301800Z 24007KT CAVOK 32/02 Q1004 NOSIG
الضغط 29.65 في
وضوح الرؤية -9999.0 أميال
سحابات
نقطة الندى 36 °F
الرطوبة 15%
Rainfall 0.00 في
عمق الثلج Not available.
5:09 AM 7:07 PM
الهلال الأخير, 12% visible
METAR ORER 301800Z 24007KT CAVOK 32/02 Q1004 NOSIG

10-Day Weather Forecast

No radar image for this location.
×

Almanac

علم الفلك

Jul. 30, 2016 Rise Set
Actual Time
Civil Twilight
Nautical Twilight
Astronomical Twilight
قمر
Length Of Visible Light
طول الیوم
Tomorrow will be .
, % of the Moon is Illuminated

Today's Extremes

Country Highs Country Lows

Community

WunderPhotos

Upload Photos

1,928,609 photos uploaded!

WunderBlog® & News

Nearby

جودة الهواء

  جودة الهواء AQ Index Pollutant
Not available.

عمق الثلج

Station Depth Elevation

Earthquake Activity

City Distance Mag. Time & Date
Minimum magnitude displayed is 2.5.

Coastal Water Temperatures

مكان درجات الحرارة

Stations

Nearby Weather Stations

Station Location الحرارة رياح باردة نقطة الندى الرطوبة ريح Precip. Elev تحديث Type